sensor_id;sensor_type;location;lat;lon;timestamp;temperature;humidity
27384;DHT22;14851;51.166;4.760;2023-08-12T00:01:16;21.10;99.90
27384;DHT22;14851;51.166;4.760;2023-08-12T00:03:42;21.10;99.90
27384;DHT22;14851;51.166;4.760;2023-08-12T00:06:08;21.10;99.90
27384;DHT22;14851;51.166;4.760;2023-08-12T00:08:34;21.10;99.90
27384;DHT22;14851;51.166;4.760;2023-08-12T00:11:00;21.10;99.90
27384;DHT22;14851;51.166;4.760;2023-08-12T00:13:25;21.10;99.90
27384;DHT22;14851;51.166;4.760;2023-08-12T00:15:52;21.10;99.90
27384;DHT22;14851;51.166;4.760;2023-08-12T00:18:20;21.10;99.90
27384;DHT22;14851;51.166;4.760;2023-08-12T00:20:46;21.10;99.90
27384;DHT22;14851;51.166;4.760;2023-08-12T00:23:11;21.10;99.90
27384;DHT22;14851;51.166;4.760;2023-08-12T00:25:39;21.10;99.90
27384;DHT22;14851;51.166;4.760;2023-08-12T00:28:05;21.10;99.90
27384;DHT22;14851;51.166;4.760;2023-08-12T00:30:31;21.00;99.90
27384;DHT22;14851;51.166;4.760;2023-08-12T00:33:01;21.00;99.90
27384;DHT22;14851;51.166;4.760;2023-08-12T00:35:27;21.00;99.90
27384;DHT22;14851;51.166;4.760;2023-08-12T00:37:56;21.00;99.90
27384;DHT22;14851;51.166;4.760;2023-08-12T00:40:22;21.00;99.90
27384;DHT22;14851;51.166;4.760;2023-08-12T00:42:48;21.00;99.90
27384;DHT22;14851;51.166;4.760;2023-08-12T00:45:13;21.00;99.90
27384;DHT22;14851;51.166;4.760;2023-08-12T00:47:40;21.00;99.90
27384;DHT22;14851;51.166;4.760;2023-08-12T00:50:09;21.00;99.90
27384;DHT22;14851;51.166;4.760;2023-08-12T00:52:36;21.00;99.90
27384;DHT22;14851;51.166;4.760;2023-08-12T00:55:03;21.00;99.90
27384;DHT22;14851;51.166;4.760;2023-08-12T00:57:29;21.00;99.90
27384;DHT22;14851;51.166;4.760;2023-08-12T00:59:56;21.00;99.90
27384;DHT22;14851;51.166;4.760;2023-08-12T01:02:22;21.00;99.90
27384;DHT22;14851;51.166;4.760;2023-08-12T01:04:48;21.00;99.90
27384;DHT22;14851;51.166;4.760;2023-08-12T01:07:14;20.90;99.90
27384;DHT22;14851;51.166;4.760;2023-08-12T01:09:40;20.90;99.90
27384;DHT22;14851;51.166;4.760;2023-08-12T01:12:12;20.90;99.90
27384;DHT22;14851;51.166;4.760;2023-08-12T01:14:46;20.90;99.90
27384;DHT22;14851;51.166;4.760;2023-08-12T01:17:16;20.90;99.90
27384;DHT22;14851;51.166;4.760;2023-08-12T01:19:43;20.90;99.90
27384;DHT22;14851;51.166;4.760;2023-08-12T01:22:12;20.90;99.90
27384;DHT22;14851;51.166;4.760;2023-08-12T01:24:44;20.90;99.90
27384;DHT22;14851;51.166;4.760;2023-08-12T01:27:12;20.80;99.90
27384;DHT22;14851;51.166;4.760;2023-08-12T01:29:46;20.90;99.90
27384;DHT22;14851;51.166;4.760;2023-08-12T01:32:25;20.80;99.90
27384;DHT22;14851;51.166;4.760;2023-08-12T01:35:03;20.80;99.90
27384;DHT22;14851;51.166;4.760;2023-08-12T01:37:34;20.80;99.90
27384;DHT22;14851;51.166;4.760;2023-08-12T01:40:02;20.80;99.90
27384;DHT22;14851;51.166;4.760;2023-08-12T01:42:36;20.80;99.90
27384;DHT22;14851;51.166;4.760;2023-08-12T01:45:02;20.80;99.90
27384;DHT22;14851;51.166;4.760;2023-08-12T01:47:29;20.80;99.90
27384;DHT22;14851;51.166;4.760;2023-08-12T01:49:56;20.80;99.90
27384;DHT22;14851;51.166;4.760;2023-08-12T01:52:23;20.80;99.90
27384;DHT22;14851;51.166;4.760;2023-08-12T01:54:49;20.80;99.90
27384;DHT22;14851;51.166;4.760;2023-08-12T01:57:18;20.80;99.90
27384;DHT22;14851;51.166;4.760;2023-08-12T01:59:44;20.80;99.90
27384;DHT22;14851;51.166;4.760;2023-08-12T02:02:13;20.80;99.90
27384;DHT22;14851;51.166;4.760;2023-08-12T02:04:39;20.70;99.90
27384;DHT22;14851;51.166;4.760;2023-08-12T02:07:06;20.70;99.90
27384;DHT22;14851;51.166;4.760;2023-08-12T02:09:31;20.70;99.90
27384;DHT22;14851;51.166;4.760;2023-08-12T02:11:57;20.70;99.90
27384;DHT22;14851;51.166;4.760;2023-08-12T02:14:23;20.70;99.90
27384;DHT22;14851;51.166;4.760;2023-08-12T02:16:49;20.70;99.90
27384;DHT22;14851;51.166;4.760;2023-08-12T02:19:15;20.60;99.90
27384;DHT22;14851;51.166;4.760;2023-08-12T02:21:41;20.60;99.90
27384;DHT22;14851;51.166;4.760;2023-08-12T02:24:08;20.60;99.90
27384;DHT22;14851;51.166;4.760;2023-08-12T02:26:37;20.60;99.90
27384;DHT22;14851;51.166;4.760;2023-08-12T02:29:03;20.50;99.90
27384;DHT22;14851;51.166;4.760;2023-08-12T02:31:29;20.50;99.90
27384;DHT22;14851;51.166;4.760;2023-08-12T02:33:55;20.50;99.90
27384;DHT22;14851;51.166;4.760;2023-08-12T02:36:21;20.50;99.90
27384;DHT22;14851;51.166;4.760;2023-08-12T02:38:47;20.50;99.90
27384;DHT22;14851;51.166;4.760;2023-08-12T02:41:13;20.50;99.90
27384;DHT22;14851;51.166;4.760;2023-08-12T02:43:39;20.50;99.90
27384;DHT22;14851;51.166;4.760;2023-08-12T02:46:05;20.50;99.90
27384;DHT22;14851;51.166;4.760;2023-08-12T02:48:31;20.40;99.90
27384;DHT22;14851;51.166;4.760;2023-08-12T02:50:57;20.40;99.90
27384;DHT22;14851;51.166;4.760;2023-08-12T02:53:23;20.40;99.90
27384;DHT22;14851;51.166;4.760;2023-08-12T02:55:49;20.40;99.90
27384;DHT22;14851;51.166;4.760;2023-08-12T02:58:15;20.30;99.90
27384;DHT22;14851;51.166;4.760;2023-08-12T03:00:41;20.30;99.90
27384;DHT22;14851;51.166;4.760;2023-08-12T03:03:09;20.30;99.90
27384;DHT22;14851;51.166;4.760;2023-08-12T03:05:35;20.30;99.90
27384;DHT22;14851;51.166;4.760;2023-08-12T03:08:03;20.30;99.90
27384;DHT22;14851;51.166;4.760;2023-08-12T03:10:30;20.30;99.90
27384;DHT22;14851;51.166;4.760;2023-08-12T03:12:56;20.30;99.90
27384;DHT22;14851;51.166;4.760;2023-08-12T03:15:24;20.30;99.90
27384;DHT22;14851;51.166;4.760;2023-08-12T03:17:51;20.30;99.90
27384;DHT22;14851;51.166;4.760;2023-08-12T03:20:17;20.20;99.90
27384;DHT22;14851;51.166;4.760;2023-08-12T03:22:44;20.20;99.90
27384;DHT22;14851;51.166;4.760;2023-08-12T03:25:11;20.20;99.90
27384;DHT22;14851;51.166;4.760;2023-08-12T03:27:37;20.20;99.90
27384;DHT22;14851;51.166;4.760;2023-08-12T03:30:04;20.20;99.90
27384;DHT22;14851;51.166;4.760;2023-08-12T03:32:31;20.20;99.90
27384;DHT22;14851;51.166;4.760;2023-08-12T03:34:59;20.20;99.90
27384;DHT22;14851;51.166;4.760;2023-08-12T03:37:26;20.20;99.90
27384;DHT22;14851;51.166;4.760;2023-08-12T03:39:57;20.20;99.90
27384;DHT22;14851;51.166;4.760;2023-08-12T03:42:23;20.20;99.90
27384;DHT22;14851;51.166;4.760;2023-08-12T03:45:09;20.20;99.90
27384;DHT22;14851;51.166;4.760;2023-08-12T03:47:35;20.20;99.90
27384;DHT22;14851;51.166;4.760;2023-08-12T03:50:01;20.20;99.90
27384;DHT22;14851;51.166;4.760;2023-08-12T03:52:30;20.20;99.90
27384;DHT22;14851;51.166;4.760;2023-08-12T03:54:56;20.20;99.90
27384;DHT22;14851;51.166;4.760;2023-08-12T03:57:22;20.20;99.90
27384;DHT22;14851;51.166;4.760;2023-08-12T03:59:48;20.20;99.90
27384;DHT22;14851;51.166;4.760;2023-08-12T04:02:16;20.10;99.90
27384;DHT22;14851;51.166;4.760;2023-08-12T04:04:42;20.10;99.90
27384;DHT22;14851;51.166;4.760;2023-08-12T04:07:09;20.10;99.90
27384;DHT22;14851;51.166;4.760;2023-08-12T04:09:35;20.10;99.90
27384;DHT22;14851;51.166;4.760;2023-08-12T04:12:02;20.10;99.90
27384;DHT22;14851;51.166;4.760;2023-08-12T04:14:28;20.10;99.90
27384;DHT22;14851;51.166;4.760;2023-08-12T04:16:56;20.10;99.90
27384;DHT22;14851;51.166;4.760;2023-08-12T04:19:22;20.10;99.90
27384;DHT22;14851;51.166;4.760;2023-08-12T04:21:50;20.10;99.90
27384;DHT22;14851;51.166;4.760;2023-08-12T04:24:17;20.10;99.90
27384;DHT22;14851;51.166;4.760;2023-08-12T04:26:45;20.00;99.90
27384;DHT22;14851;51.166;4.760;2023-08-12T04:29:11;20.00;99.90
27384;DHT22;14851;51.166;4.760;2023-08-12T04:31:40;20.00;99.90
27384;DHT22;14851;51.166;4.760;2023-08-12T04:34:07;19.90;99.90
27384;DHT22;14851;51.166;4.760;2023-08-12T04:36:32;19.90;99.90
27384;DHT22;14851;51.166;4.760;2023-08-12T04:39:01;19.80;99.90
27384;DHT22;14851;51.166;4.760;2023-08-12T04:41:28;19.80;99.90
27384;DHT22;14851;51.166;4.760;2023-08-12T04:43:55;19.70;99.90
27384;DHT22;14851;51.166;4.760;2023-08-12T04:46:25;19.70;99.90
27384;DHT22;14851;51.166;4.760;2023-08-12T04:48:51;19.70;99.90
27384;DHT22;14851;51.166;4.760;2023-08-12T04:51:17;19.70;99.90
27384;DHT22;14851;51.166;4.760;2023-08-12T04:53:43;19.70;99.90
27384;DHT22;14851;51.166;4.760;2023-08-12T04:56:10;19.70;99.90
27384;DHT22;14851;51.166;4.760;2023-08-12T04:58:38;19.70;99.90
27384;DHT22;14851;51.166;4.760;2023-08-12T05:01:04;19.60;99.90
27384;DHT22;14851;51.166;4.760;2023-08-12T05:03:30;19.70;99.90
27384;DHT22;14851;51.166;4.760;2023-08-12T05:05:56;19.70;99.90
27384;DHT22;14851;51.166;4.760;2023-08-12T05:08:26;19.70;99.90
27384;DHT22;14851;51.166;4.760;2023-08-12T05:10:52;19.70;99.90
27384;DHT22;14851;51.166;4.760;2023-08-12T05:13:18;19.70;99.90
27384;DHT22;14851;51.166;4.760;2023-08-12T05:15:47;19.70;99.90
27384;DHT22;14851;51.166;4.760;2023-08-12T05:18:14;19.70;99.90
27384;DHT22;14851;51.166;4.760;2023-08-12T05:20:41;19.70;99.90
27384;DHT22;14851;51.166;4.760;2023-08-12T05:23:07;19.70;99.90
27384;DHT22;14851;51.166;4.760;2023-08-12T05:25:33;19.70;99.90
27384;DHT22;14851;51.166;4.760;2023-08-12T05:27:59;19.70;99.90
27384;DHT22;14851;51.166;4.760;2023-08-12T05:30:25;19.70;99.90
27384;DHT22;14851;51.166;4.760;2023-08-12T05:32:54;19.70;99.90
27384;DHT22;14851;51.166;4.760;2023-08-12T05:35:19;19.70;99.90
27384;DHT22;14851;51.166;4.760;2023-08-12T05:37:48;19.80;99.90
27384;DHT22;14851;51.166;4.760;2023-08-12T05:40:14;19.80;99.90
27384;DHT22;14851;51.166;4.760;2023-08-12T05:42:39;19.80;99.90
27384;DHT22;14851;51.166;4.760;2023-08-12T05:45:06;19.80;99.90
27384;DHT22;14851;51.166;4.760;2023-08-12T05:47:34;19.80;99.90
27384;DHT22;14851;51.166;4.760;2023-08-12T05:50:00;19.80;99.90
27384;DHT22;14851;51.166;4.760;2023-08-12T05:52:26;19.90;99.90
27384;DHT22;14851;51.166;4.760;2023-08-12T05:54:54;19.90;99.90
27384;DHT22;14851;51.166;4.760;2023-08-12T05:57:22;19.90;99.90
27384;DHT22;14851;51.166;4.760;2023-08-12T05:59:48;19.90;99.90
27384;DHT22;14851;51.166;4.760;2023-08-12T06:02:14;19.90;99.90
27384;DHT22;14851;51.166;4.760;2023-08-12T06:04:40;19.90;99.90
27384;DHT22;14851;51.166;4.760;2023-08-12T06:07:09;19.90;99.90
27384;DHT22;14851;51.166;4.760;2023-08-12T06:09:34;19.90;99.90
27384;DHT22;14851;51.166;4.760;2023-08-12T06:12:03;19.90;99.90
27384;DHT22;14851;51.166;4.760;2023-08-12T06:14:29;20.00;99.90
27384;DHT22;14851;51.166;4.760;2023-08-12T06:16:55;20.00;99.90
27384;DHT22;14851;51.166;4.760;2023-08-12T06:19:21;20.00;99.90
27384;DHT22;14851;51.166;4.760;2023-08-12T06:21:49;19.90;99.90
27384;DHT22;14851;51.166;4.760;2023-08-12T06:24:15;20.00;99.90
27384;DHT22;14851;51.166;4.760;2023-08-12T06:26:41;20.00;99.90
27384;DHT22;14851;51.166;4.760;2023-08-12T06:29:09;20.00;99.90
27384;DHT22;14851;51.166;4.760;2023-08-12T06:31:35;20.00;99.90
27384;DHT22;14851;51.166;4.760;2023-08-12T06:34:01;20.00;99.90
27384;DHT22;14851;51.166;4.760;2023-08-12T06:36:26;20.00;99.90
27384;DHT22;14851;51.166;4.760;2023-08-12T06:38:52;20.00;99.90
27384;DHT22;14851;51.166;4.760;2023-08-12T06:41:18;20.00;99.90
27384;DHT22;14851;51.166;4.760;2023-08-12T06:43:44;20.00;99.90
27384;DHT22;14851;51.166;4.760;2023-08-12T06:46:10;20.00;99.90
27384;DHT22;14851;51.166;4.760;2023-08-12T06:48:36;20.00;99.90
27384;DHT22;14851;51.166;4.760;2023-08-12T06:51:02;20.00;99.90
27384;DHT22;14851;51.166;4.760;2023-08-12T06:53:36;20.00;99.90
27384;DHT22;14851;51.166;4.760;2023-08-12T06:56:02;20.00;99.90
27384;DHT22;14851;51.166;4.760;2023-08-12T06:58:28;20.00;99.90
27384;DHT22;14851;51.166;4.760;2023-08-12T07:00:56;20.00;99.90
27384;DHT22;14851;51.166;4.760;2023-08-12T07:03:22;20.00;99.90
27384;DHT22;14851;51.166;4.760;2023-08-12T07:05:48;20.00;99.90
27384;DHT22;14851;51.166;4.760;2023-08-12T07:08:16;20.00;99.90
27384;DHT22;14851;51.166;4.760;2023-08-12T07:10:43;20.00;99.90
27384;DHT22;14851;51.166;4.760;2023-08-12T07:13:09;20.00;99.90
27384;DHT22;14851;51.166;4.760;2023-08-12T07:15:35;20.10;99.90
27384;DHT22;14851;51.166;4.760;2023-08-12T07:18:03;20.00;99.90
27384;DHT22;14851;51.166;4.760;2023-08-12T07:20:31;20.00;99.90
27384;DHT22;14851;51.166;4.760;2023-08-12T07:22:57;20.10;99.90
27384;DHT22;14851;51.166;4.760;2023-08-12T07:25:23;20.10;99.90
27384;DHT22;14851;51.166;4.760;2023-08-12T07:27:49;20.00;99.90
27384;DHT22;14851;51.166;4.760;2023-08-12T07:30:15;20.00;99.90
27384;DHT22;14851;51.166;4.760;2023-08-12T07:32:41;20.00;99.90
27384;DHT22;14851;51.166;4.760;2023-08-12T07:35:07;20.00;99.90
27384;DHT22;14851;51.166;4.760;2023-08-12T07:37:35;19.90;99.90
27384;DHT22;14851;51.166;4.760;2023-08-12T07:40:01;19.90;99.90
27384;DHT22;14851;51.166;4.760;2023-08-12T07:42:28;19.90;99.90
27384;DHT22;14851;51.166;4.760;2023-08-12T07:44:57;19.90;99.90
27384;DHT22;14851;51.166;4.760;2023-08-12T07:47:23;19.90;99.90
27384;DHT22;14851;51.166;4.760;2023-08-12T07:49:49;19.90;99.90
27384;DHT22;14851;51.166;4.760;2023-08-12T07:52:15;19.90;99.90
27384;DHT22;14851;51.166;4.760;2023-08-12T07:54:41;19.90;99.90
27384;DHT22;14851;51.166;4.760;2023-08-12T07:57:07;19.80;99.90
27384;DHT22;14851;51.166;4.760;2023-08-12T07:59:33;19.90;99.90
27384;DHT22;14851;51.166;4.760;2023-08-12T08:01:58;19.90;99.90
27384;DHT22;14851;51.166;4.760;2023-08-12T08:04:24;19.90;99.90
27384;DHT22;14851;51.166;4.760;2023-08-12T08:06:50;19.90;99.90
27384;DHT22;14851;51.166;4.760;2023-08-12T08:09:16;19.90;99.90
27384;DHT22;14851;51.166;4.760;2023-08-12T08:11:42;19.90;99.90
27384;DHT22;14851;51.166;4.760;2023-08-12T08:14:08;20.00;99.90
27384;DHT22;14851;51.166;4.760;2023-08-12T08:16:34;20.00;99.90
27384;DHT22;14851;51.166;4.760;2023-08-12T08:19:00;20.10;99.90
27384;DHT22;14851;51.166;4.760;2023-08-12T08:21:26;20.20;99.90
27384;DHT22;14851;51.166;4.760;2023-08-12T08:23:52;20.30;99.90
27384;DHT22;14851;51.166;4.760;2023-08-12T08:26:17;20.30;99.90
27384;DHT22;14851;51.166;4.760;2023-08-12T08:32:24;20.30;99.90
27384;DHT22;14851;51.166;4.760;2023-08-12T08:34:50;20.30;99.90
27384;DHT22;14851;51.166;4.760;2023-08-12T08:37:16;20.30;99.90
27384;DHT22;14851;51.166;4.760;2023-08-12T08:39:42;20.40;99.90
27384;DHT22;14851;51.166;4.760;2023-08-12T08:42:10;20.30;99.90
27384;DHT22;14851;51.166;4.760;2023-08-12T08:44:40;20.30;99.90
27384;DHT22;14851;51.166;4.760;2023-08-12T08:47:08;20.20;99.90
27384;DHT22;14851;51.166;4.760;2023-08-12T08:49:35;20.20;99.90
27384;DHT22;14851;51.166;4.760;2023-08-12T08:52:04;20.20;99.90
27384;DHT22;14851;51.166;4.760;2023-08-12T08:54:30;20.20;99.90
27384;DHT22;14851;51.166;4.760;2023-08-12T08:56:56;20.20;99.90
27384;DHT22;14851;51.166;4.760;2023-08-12T08:59:22;20.20;99.90
27384;DHT22;14851;51.166;4.760;2023-08-12T09:01:49;20.30;99.90
27384;DHT22;14851;51.166;4.760;2023-08-12T09:04:17;20.30;99.90
27384;DHT22;14851;51.166;4.760;2023-08-12T09:06:45;20.30;99.90
27384;DHT22;14851;51.166;4.760;2023-08-12T09:09:14;20.30;99.90
27384;DHT22;14851;51.166;4.760;2023-08-12T09:11:41;20.30;99.90
27384;DHT22;14851;51.166;4.760;2023-08-12T09:14:08;20.30;99.90
27384;DHT22;14851;51.166;4.760;2023-08-12T09:16:34;20.40;99.90
27384;DHT22;14851;51.166;4.760;2023-08-12T09:19:00;20.30;99.90
27384;DHT22;14851;51.166;4.760;2023-08-12T09:21:26;20.30;99.90
27384;DHT22;14851;51.166;4.760;2023-08-12T09:23:52;20.40;99.90
27384;DHT22;14851;51.166;4.760;2023-08-12T09:26:20;20.50;99.90
27384;DHT22;14851;51.166;4.760;2023-08-12T09:28:47;20.50;99.90
27384;DHT22;14851;51.166;4.760;2023-08-12T09:31:30;20.60;99.90
27384;DHT22;14851;51.166;4.760;2023-08-12T09:34:03;20.60;99.90
27384;DHT22;14851;51.166;4.760;2023-08-12T09:36:30;20.60;99.90
27384;DHT22;14851;51.166;4.760;2023-08-12T09:38:57;20.50;99.90
27384;DHT22;14851;51.166;4.760;2023-08-12T09:41:26;20.50;99.90
27384;DHT22;14851;51.166;4.760;2023-08-12T09:43:52;20.50;99.90
27384;DHT22;14851;51.166;4.760;2023-08-12T09:46:22;20.50;99.90
27384;DHT22;14851;51.166;4.760;2023-08-12T09:48:50;20.70;99.90
27384;DHT22;14851;51.166;4.760;2023-08-12T09:51:17;20.80;99.90
27384;DHT22;14851;51.166;4.760;2023-08-12T09:54:00;20.90;99.90
27384;DHT22;14851;51.166;4.760;2023-08-12T09:56:36;21.00;99.90
27384;DHT22;14851;51.166;4.760;2023-08-12T09:59:06;20.90;99.90
27384;DHT22;14851;51.166;4.760;2023-08-12T10:01:33;20.90;99.90
27384;DHT22;14851;51.166;4.760;2023-08-12T10:03:59;20.90;99.90
27384;DHT22;14851;51.166;4.760;2023-08-12T10:06:26;20.90;99.90
27384;DHT22;14851;51.166;4.760;2023-08-12T10:08:53;20.90;99.90
27384;DHT22;14851;51.166;4.760;2023-08-12T10:11:19;20.90;99.90
27384;DHT22;14851;51.166;4.760;2023-08-12T10:13:47;20.90;99.90
27384;DHT22;14851;51.166;4.760;2023-08-12T10:16:13;21.00;99.90
27384;DHT22;14851;51.166;4.760;2023-08-12T10:18:39;21.00;99.90
27384;DHT22;14851;51.166;4.760;2023-08-12T10:21:09;21.00;99.90
27384;DHT22;14851;51.166;4.760;2023-08-12T10:23:38;21.10;99.90
27384;DHT22;14851;51.166;4.760;2023-08-12T10:26:07;21.10;99.90
27384;DHT22;14851;51.166;4.760;2023-08-12T10:28:34;21.10;99.90
27384;DHT22;14851;51.166;4.760;2023-08-12T10:31:11;20.90;99.90
27384;DHT22;14851;51.166;4.760;2023-08-12T10:33:38;21.00;99.90
27384;DHT22;14851;51.166;4.760;2023-08-12T10:36:05;21.10;99.90
27384;DHT22;14851;51.166;4.760;2023-08-12T10:38:32;21.10;99.90
27384;DHT22;14851;51.166;4.760;2023-08-12T10:41:19;21.20;99.90
27384;DHT22;14851;51.166;4.760;2023-08-12T10:43:54;21.30;99.90
27384;DHT22;14851;51.166;4.760;2023-08-12T10:49:02;21.30;99.90
27384;DHT22;14851;51.166;4.760;2023-08-12T10:51:54;21.30;99.90
27384;DHT22;14851;51.166;4.760;2023-08-12T11:04:57;21.50;99.90
27384;DHT22;14851;51.166;4.760;2023-08-12T11:07:38;21.50;99.90
27384;DHT22;14851;51.166;4.760;2023-08-12T11:10:13;21.60;99.90
27384;DHT22;14851;51.166;4.760;2023-08-12T11:13:08;21.70;99.90
27384;DHT22;14851;51.166;4.760;2023-08-12T11:15:37;21.70;99.90
27384;DHT22;14851;51.166;4.760;2023-08-12T11:18:09;21.80;99.90
27384;DHT22;14851;51.166;4.760;2023-08-12T11:20:36;21.80;99.90
27384;DHT22;14851;51.166;4.760;2023-08-12T11:23:08;21.80;99.90
27384;DHT22;14851;51.166;4.760;2023-08-12T11:25:36;21.80;99.90
27384;DHT22;14851;51.166;4.760;2023-08-12T11:28:04;21.90;99.90
27384;DHT22;14851;51.166;4.760;2023-08-12T11:30:30;21.90;99.90
27384;DHT22;14851;51.166;4.760;2023-08-12T11:32:57;21.90;99.90
27384;DHT22;14851;51.166;4.760;2023-08-12T11:35:25;21.90;99.90
27384;DHT22;14851;51.166;4.760;2023-08-12T11:37:56;22.00;99.90
27384;DHT22;14851;51.166;4.760;2023-08-12T11:40:23;22.00;99.90
27384;DHT22;14851;51.166;4.760;2023-08-12T11:42:50;22.00;99.90
27384;DHT22;14851;51.166;4.760;2023-08-12T11:45:21;21.90;99.90
27384;DHT22;14851;51.166;4.760;2023-08-12T11:47:48;21.80;99.90
27384;DHT22;14851;51.166;4.760;2023-08-12T11:50:19;21.70;99.90
27384;DHT22;14851;51.166;4.760;2023-08-12T11:52:46;21.70;99.90
27384;DHT22;14851;51.166;4.760;2023-08-12T11:55:12;21.70;99.90
27384;DHT22;14851;51.166;4.760;2023-08-12T11:57:41;21.70;99.90
27384;DHT22;14851;51.166;4.760;2023-08-12T12:00:10;21.70;99.90
27384;DHT22;14851;51.166;4.760;2023-08-12T12:02:41;21.70;99.90
27384;DHT22;14851;51.166;4.760;2023-08-12T12:05:10;21.80;99.90
27384;DHT22;14851;51.166;4.760;2023-08-12T12:07:37;21.80;99.90
27384;DHT22;14851;51.166;4.760;2023-08-12T12:10:05;21.90;99.90
27384;DHT22;14851;51.166;4.760;2023-08-12T12:12:34;21.90;99.90
27384;DHT22;14851;51.166;4.760;2023-08-12T12:15:03;21.80;99.90
27384;DHT22;14851;51.166;4.760;2023-08-12T12:17:29;21.80;99.90
27384;DHT22;14851;51.166;4.760;2023-08-12T12:19:57;21.90;99.90
27384;DHT22;14851;51.166;4.760;2023-08-12T12:22:29;21.90;99.90
27384;DHT22;14851;51.166;4.760;2023-08-12T12:24:58;22.00;99.90
27384;DHT22;14851;51.166;4.760;2023-08-12T12:27:27;21.90;99.90
27384;DHT22;14851;51.166;4.760;2023-08-12T12:29:54;22.00;99.90
27384;DHT22;14851;51.166;4.760;2023-08-12T12:32:20;22.00;99.90
27384;DHT22;14851;51.166;4.760;2023-08-12T12:34:47;22.00;99.90
27384;DHT22;14851;51.166;4.760;2023-08-12T12:37:13;22.10;99.90
27384;DHT22;14851;51.166;4.760;2023-08-12T12:39:40;22.10;99.90
27384;DHT22;14851;51.166;4.760;2023-08-12T12:42:06;22.30;99.90
27384;DHT22;14851;51.166;4.760;2023-08-12T12:44:32;22.30;99.90
27384;DHT22;14851;51.166;4.760;2023-08-12T12:47:03;22.20;99.90
27384;DHT22;14851;51.166;4.760;2023-08-12T12:49:32;22.20;99.90
27384;DHT22;14851;51.166;4.760;2023-08-12T12:51:58;22.20;99.90
27384;DHT22;14851;51.166;4.760;2023-08-12T12:54:24;22.20;99.90
27384;DHT22;14851;51.166;4.760;2023-08-12T12:56:53;22.20;99.90
27384;DHT22;14851;51.166;4.760;2023-08-12T12:59:47;22.30;99.90
27384;DHT22;14851;51.166;4.760;2023-08-12T13:02:26;22.30;99.90
27384;DHT22;14851;51.166;4.760;2023-08-12T13:05:08;22.30;99.90
27384;DHT22;14851;51.166;4.760;2023-08-12T13:07:34;22.40;99.90
27384;DHT22;14851;51.166;4.760;2023-08-12T13:10:00;22.50;99.90
27384;DHT22;14851;51.166;4.760;2023-08-12T13:12:26;22.50;99.90
27384;DHT22;14851;51.166;4.760;2023-08-12T13:14:52;22.50;99.90
27384;DHT22;14851;51.166;4.760;2023-08-12T13:17:22;22.50;99.90
27384;DHT22;14851;51.166;4.760;2023-08-12T13:19:57;22.50;99.90
27384;DHT22;14851;51.166;4.760;2023-08-12T13:22:34;22.50;99.90
27384;DHT22;14851;51.166;4.760;2023-08-12T13:25:00;22.60;99.90
27384;DHT22;14851;51.166;4.760;2023-08-12T13:27:29;22.60;99.90
27384;DHT22;14851;51.166;4.760;2023-08-12T13:29:57;22.70;99.90
27384;DHT22;14851;51.166;4.760;2023-08-12T13:32:25;22.70;99.90
27384;DHT22;14851;51.166;4.760;2023-08-12T13:34:54;22.80;99.90
27384;DHT22;14851;51.166;4.760;2023-08-12T13:37:19;22.80;99.90
27384;DHT22;14851;51.166;4.760;2023-08-12T13:39:45;22.70;99.90
27384;DHT22;14851;51.166;4.760;2023-08-12T13:42:11;22.70;99.90
27384;DHT22;14851;51.166;4.760;2023-08-12T13:44:37;22.70;99.90
27384;DHT22;14851;51.166;4.760;2023-08-12T13:47:03;22.80;99.90
27384;DHT22;14851;51.166;4.760;2023-08-12T13:49:29;22.80;99.90
27384;DHT22;14851;51.166;4.760;2023-08-12T13:51:55;22.70;99.90
27384;DHT22;14851;51.166;4.760;2023-08-12T13:54:23;22.80;99.90
27384;DHT22;14851;51.166;4.760;2023-08-12T13:56:49;22.70;99.90
27384;DHT22;14851;51.166;4.760;2023-08-12T13:59:15;22.80;99.90
27384;DHT22;14851;51.166;4.760;2023-08-12T14:01:41;22.80;99.90
27384;DHT22;14851;51.166;4.760;2023-08-12T14:04:08;22.80;99.90
27384;DHT22;14851;51.166;4.760;2023-08-12T14:06:37;22.90;99.90
27384;DHT22;14851;51.166;4.760;2023-08-12T14:09:03;23.00;99.90
27384;DHT22;14851;51.166;4.760;2023-08-12T14:11:29;23.10;99.90
27384;DHT22;14851;51.166;4.760;2023-08-12T14:13:57;23.10;99.90
27384;DHT22;14851;51.166;4.760;2023-08-12T14:16:23;23.00;99.90
27384;DHT22;14851;51.166;4.760;2023-08-12T14:18:48;23.10;99.90
27384;DHT22;14851;51.166;4.760;2023-08-12T14:21:17;23.20;99.90
27384;DHT22;14851;51.166;4.760;2023-08-12T14:23:42;23.30;99.90
27384;DHT22;14851;51.166;4.760;2023-08-12T14:26:08;23.30;99.90
27384;DHT22;14851;51.166;4.760;2023-08-12T14:28:34;23.30;99.90
27384;DHT22;14851;51.166;4.760;2023-08-12T14:31:00;23.30;99.90
27384;DHT22;14851;51.166;4.760;2023-08-12T14:33:28;23.40;99.90
27384;DHT22;14851;51.166;4.760;2023-08-12T14:35:57;23.40;99.90
27384;DHT22;14851;51.166;4.760;2023-08-12T14:38:25;23.40;99.90
27384;DHT22;14851;51.166;4.760;2023-08-12T14:40:53;23.30;99.90
27384;DHT22;14851;51.166;4.760;2023-08-12T14:43:19;23.30;99.90
27384;DHT22;14851;51.166;4.760;2023-08-12T14:45:45;23.30;99.90
27384;DHT22;14851;51.166;4.760;2023-08-12T14:48:13;23.30;99.90
27384;DHT22;14851;51.166;4.760;2023-08-12T14:50:44;23.40;99.90
27384;DHT22;14851;51.166;4.760;2023-08-12T14:53:10;23.40;99.90
27384;DHT22;14851;51.166;4.760;2023-08-12T14:55:38;23.40;99.90
27384;DHT22;14851;51.166;4.760;2023-08-12T14:58:04;23.40;99.90
27384;DHT22;14851;51.166;4.760;2023-08-12T15:00:30;23.40;99.90
27384;DHT22;14851;51.166;4.760;2023-08-12T15:02:59;23.40;99.90
27384;DHT22;14851;51.166;4.760;2023-08-12T15:05:27;23.50;99.90
27384;DHT22;14851;51.166;4.760;2023-08-12T15:07:53;23.50;99.90
27384;DHT22;14851;51.166;4.760;2023-08-12T15:10:22;23.50;99.90
27384;DHT22;14851;51.166;4.760;2023-08-12T15:12:50;23.50;99.90
27384;DHT22;14851;51.166;4.760;2023-08-12T15:15:16;23.50;99.90
27384;DHT22;14851;51.166;4.760;2023-08-12T15:17:42;23.40;99.90
27384;DHT22;14851;51.166;4.760;2023-08-12T15:20:08;23.40;99.90
27384;DHT22;14851;51.166;4.760;2023-08-12T15:22:36;23.40;99.90
27384;DHT22;14851;51.166;4.760;2023-08-12T15:25:01;23.40;99.90
27384;DHT22;14851;51.166;4.760;2023-08-12T15:27:27;23.40;99.90
27384;DHT22;14851;51.166;4.760;2023-08-12T15:29:54;23.50;99.90
27384;DHT22;14851;51.166;4.760;2023-08-12T15:32:20;23.50;99.90
27384;DHT22;14851;51.166;4.760;2023-08-12T15:34:46;23.50;99.90
27384;DHT22;14851;51.166;4.760;2023-08-12T15:37:14;23.60;99.90
27384;DHT22;14851;51.166;4.760;2023-08-12T15:39:40;23.60;99.90
27384;DHT22;14851;51.166;4.760;2023-08-12T15:42:09;23.60;99.90
27384;DHT22;14851;51.166;4.760;2023-08-12T15:44:35;23.50;99.90
27384;DHT22;14851;51.166;4.760;2023-08-12T15:47:03;23.50;99.90
27384;DHT22;14851;51.166;4.760;2023-08-12T15:49:32;23.50;99.90